createdAt,value
2022-10-17T00:01:11.997Z,101870.97
2022-10-17T00:03:41.866Z,101871.16
2022-10-17T00:06:12.704Z,101883.72
2022-10-17T00:08:42.305Z,101869.34
2022-10-17T00:11:15.067Z,101883.31
2022-10-17T00:13:45.060Z,101891.47
2022-10-17T00:16:14.923Z,101893.34
2022-10-17T00:18:43.349Z,101895.19
2022-10-17T00:21:17.000Z,101897.75
2022-10-17T00:23:45.469Z,101900.78
2022-10-17T00:26:15.120Z,101892.88
2022-10-17T00:28:47.995Z,101894.56
2022-10-17T00:31:18.278Z,101900.00
2022-10-17T00:33:47.331Z,101895.38
2022-10-17T00:36:19.576Z,101865.78
2022-10-17T00:38:51.706Z,101904.56
2022-10-17T00:41:23.677Z,101884.41
2022-10-17T00:43:56.382Z,101889.47
2022-10-17T00:46:29.490Z,101882.72
2022-10-17T00:49:00.186Z,101883.91
2022-10-17T00:51:35.312Z,101889.69
2022-10-17T00:54:04.736Z,101896.25
2022-10-17T00:56:33.752Z,101897.47
2022-10-17T00:59:03.899Z,101898.66
2022-10-17T01:01:33.553Z,101894.25
2022-10-17T01:04:01.997Z,101898.16
2022-10-17T01:06:30.283Z,101895.44
2022-10-17T01:08:58.595Z,101900.69
2022-10-17T01:11:39.289Z,101901.38
2022-10-17T01:14:18.181Z,101910.34
2022-10-17T01:16:53.387Z,101901.19
2022-10-17T01:19:51.291Z,101905.78
2022-10-17T01:22:28.486Z,101896.47
2022-10-17T01:25:22.771Z,101897.84
2022-10-17T01:28:02.455Z,101896.69
2022-10-17T01:31:00.605Z,101887.88
2022-10-17T01:33:39.464Z,101845.09
2022-10-17T01:36:12.807Z,101891.94
2022-10-17T01:38:48.964Z,101889.75
2022-10-17T01:41:26.551Z,101898.38
2022-10-17T01:44:01.323Z,101897.53
2022-10-17T01:46:34.357Z,101900.06
2022-10-17T01:49:05.838Z,101904.66
2022-10-17T01:51:39.326Z,101850.84
2022-10-17T01:54:13.361Z,101910.41
2022-10-17T01:56:44.038Z,101905.84
2022-10-17T01:59:16.364Z,101758.50
2022-10-17T02:01:52.275Z,101906.34
2022-10-17T02:04:20.964Z,101878.06
2022-10-17T02:06:49.191Z,101901.59
2022-10-17T02:09:23.514Z,101899.53
2022-10-17T02:12:18.467Z,101902.78
2022-10-17T02:15:02.981Z,101914.97
2022-10-17T02:17:43.683Z,101908.88
2022-10-17T02:20:21.545Z,101902.28
2022-10-17T02:22:57.888Z,101895.00
2022-10-17T02:25:37.628Z,101887.94
2022-10-17T02:28:18.194Z,101891.00
2022-10-17T02:30:52.821Z,101853.09
2022-10-17T02:33:27.038Z,101889.97
2022-10-17T02:36:02.263Z,101856.16
2022-10-17T02:38:32.994Z,101857.50
2022-10-17T02:41:03.345Z,101893.19
2022-10-17T02:43:32.145Z,101881.19
2022-10-17T02:46:01.172Z,101888.31
2022-10-17T02:48:38.559Z,101891.38
2022-10-17T02:51:14.080Z,101882.72
2022-10-17T02:53:50.923Z,101885.59
2022-10-17T02:56:21.645Z,101897.06
2022-10-17T02:58:53.535Z,101890.97
2022-10-17T03:01:23.220Z,101893.00
2022-10-17T03:03:53.194Z,101888.13
2022-10-17T03:06:21.565Z,101893.88
2022-10-17T03:08:49.782Z,101881.84
2022-10-17T03:11:19.226Z,101886.59
2022-10-17T03:13:47.468Z,101886.25
2022-10-17T03:16:16.454Z,101890.28
2022-10-17T03:18:47.947Z,101892.47
2022-10-17T03:21:19.814Z,101889.47
2022-10-17T03:23:48.441Z,101856.59
2022-10-17T03:26:17.621Z,101889.28
2022-10-17T03:28:47.637Z,101898.06
2022-10-17T03:31:18.903Z,101901.41
2022-10-17T03:33:48.225Z,101906.47
2022-10-17T03:36:20.982Z,101915.09
2022-10-17T03:38:49.869Z,101914.75
2022-10-17T03:41:18.896Z,101920.31
2022-10-17T03:43:47.380Z,101924.19
2022-10-17T03:46:15.865Z,101923.03
2022-10-17T03:48:44.647Z,101923.88
2022-10-17T03:51:13.097Z,101925.19
2022-10-17T03:53:56.777Z,101938.03
2022-10-17T03:56:26.701Z,101927.72
2022-10-17T03:59:02.843Z,101935.66
2022-10-17T04:01:40.974Z,101951.72
2022-10-17T04:04:13.457Z,101949.03
2022-10-17T04:06:41.859Z,101942.06
2022-10-17T04:09:13.473Z,101943.09
2022-10-17T04:11:49.028Z,101947.81
2022-10-17T04:14:18.036Z,101953.06
2022-10-17T04:16:46.449Z,101954.75
2022-10-17T04:19:19.137Z,101959.22
2022-10-17T04:21:48.716Z,101952.19
2022-10-17T04:24:18.672Z,101957.88
2022-10-17T04:26:52.393Z,101954.63
2022-10-17T04:29:23.385Z,101953.25
2022-10-17T04:31:53.762Z,101954.28
2022-10-17T04:34:44.910Z,101955.91
2022-10-17T04:37:13.167Z,101957.47
2022-10-17T04:39:42.882Z,101962.19
2022-10-17T04:42:11.187Z,101967.25
2022-10-17T04:44:39.620Z,101960.97
2022-10-17T04:47:09.533Z,101968.53
2022-10-17T04:52:15.131Z,101971.41
2022-10-17T04:54:52.626Z,101980.22
2022-10-17T04:57:22.244Z,101983.75
2022-10-17T04:59:58.091Z,101979.03
2022-10-17T05:02:39.874Z,101979.72
2022-10-17T05:05:08.932Z,101971.31
2022-10-17T05:07:40.623Z,101972.47
2022-10-17T05:10:15.231Z,101969.41
2022-10-17T05:12:48.385Z,101979.69
2022-10-17T05:15:18.657Z,101981.69
2022-10-17T05:17:47.052Z,101984.72
2022-10-17T05:20:15.422Z,101985.19
2022-10-17T05:22:43.695Z,101984.81
2022-10-17T05:25:14.592Z,101978.22
2022-10-17T05:27:42.854Z,101975.00
2022-10-17T05:30:11.853Z,101978.84
2022-10-17T05:32:41.510Z,101974.06
2022-10-17T05:35:10.697Z,101975.94
2022-10-17T05:37:40.075Z,101985.03
2022-10-17T05:40:09.803Z,101984.19
2022-10-17T05:45:11.020Z,101989.91
2022-10-17T05:47:39.262Z,101977.34
2022-10-17T05:50:08.938Z,101992.63
2022-10-17T05:52:54.890Z,101992.06
2022-10-17T05:55:24.384Z,101994.78
2022-10-17T05:57:54.856Z,101992.06
2022-10-17T06:00:29.392Z,101997.63
2022-10-17T06:02:59.872Z,101996.94
2022-10-17T06:05:28.308Z,102003.19
2022-10-17T06:08:01.141Z,102007.06
2022-10-17T06:10:34.134Z,102013.81
2022-10-17T06:13:03.893Z,102010.09
2022-10-17T06:15:32.245Z,102011.56
2022-10-17T06:18:04.691Z,102012.88
2022-10-17T06:20:33.689Z,102016.44
2022-10-17T06:23:03.050Z,102028.63
2022-10-17T06:26:00.595Z,102027.94
2022-10-17T06:28:32.077Z,102028.63
2022-10-17T06:31:00.523Z,102037.59
2022-10-17T06:33:28.782Z,102036.75
2022-10-17T06:35:58.223Z,102039.59
2022-10-17T06:38:27.501Z,102036.34
2022-10-17T06:41:05.190Z,102037.19
2022-10-17T06:43:35.017Z,102041.22
2022-10-17T06:46:21.908Z,102046.91
2022-10-17T06:48:57.490Z,102046.78
2022-10-17T06:51:41.964Z,102058.97
2022-10-17T06:54:13.247Z,102061.06
2022-10-17T06:57:00.103Z,102062.59
2022-10-17T06:59:48.265Z,102056.41
2022-10-17T07:02:23.731Z,102064.88
2022-10-17T07:04:53.106Z,102066.13
2022-10-17T07:07:21.367Z,102059.41
2022-10-17T07:09:49.697Z,102069.06
2022-10-17T07:12:19.200Z,102075.00
2022-10-17T07:14:50.556Z,102089.72
2022-10-17T07:17:19.654Z,102025.94
2022-10-17T07:19:48.750Z,102095.34
2022-10-17T07:22:18.110Z,102091.00
2022-10-17T07:27:28.502Z,102098.56
2022-10-17T07:29:58.312Z,102092.75
2022-10-17T07:32:35.976Z,102103.97
2022-10-17T07:35:05.826Z,102104.22
2022-10-17T07:37:34.742Z,102104.81
2022-10-17T07:40:03.777Z,102112.94
2022-10-17T07:42:32.187Z,102112.28
2022-10-17T07:45:01.949Z,102111.66
2022-10-17T07:47:35.758Z,102119.63
2022-10-17T07:50:05.502Z,102106.94
2022-10-17T07:52:33.842Z,102111.72
2022-10-17T07:55:02.189Z,102108.00
2022-10-17T07:57:30.405Z,102104.66
2022-10-17T07:59:58.841Z,102107.91
2022-10-17T08:02:29.573Z,102106.41
2022-10-17T08:04:58.002Z,102118.81
2022-10-17T08:07:29.350Z,102120.38
2022-10-17T08:09:58.014Z,102115.63
2022-10-17T08:12:26.541Z,102120.50
2022-10-17T08:14:55.076Z,102115.59
2022-10-17T08:17:23.395Z,102122.88
2022-10-17T08:19:53.090Z,102124.25
2022-10-17T08:22:21.348Z,102125.25
2022-10-17T08:24:49.655Z,102129.66
2022-10-17T08:27:23.718Z,102123.34
2022-10-17T08:29:54.211Z,102131.66
2022-10-17T08:32:25.010Z,102127.06
2022-10-17T08:34:55.624Z,102124.97
2022-10-17T08:37:24.224Z,102124.47
2022-10-17T08:39:52.514Z,102131.06
2022-10-17T08:42:42.472Z,102126.00
2022-10-17T08:45:19.827Z,102129.38
2022-10-17T08:47:52.974Z,102130.16
2022-10-17T08:50:30.627Z,102132.69
2022-10-17T08:53:03.935Z,102132.31
2022-10-17T08:55:39.972Z,102124.09
2022-10-17T08:58:16.352Z,102093.09
2022-10-17T09:00:51.268Z,102123.03
2022-10-17T09:03:42.830Z,102128.47
2022-10-17T09:06:20.676Z,102123.22
2022-10-17T09:09:01.350Z,102122.34
2022-10-17T09:11:53.201Z,102115.06
2022-10-17T09:14:41.448Z,102121.03
2022-10-17T09:17:22.281Z,102124.47
2022-10-17T09:20:01.413Z,102125.13
2022-10-17T09:22:39.038Z,102119.69
2022-10-17T09:25:13.495Z,102120.34
2022-10-17T09:27:45.565Z,102127.47
2022-10-17T09:30:45.130Z,102122.03
2022-10-17T09:33:28.296Z,102127.66
2022-10-17T09:36:07.719Z,102127.47
2022-10-17T09:38:43.223Z,102017.09
2022-10-17T09:41:43.588Z,102127.47
2022-10-17T09:44:20.774Z,102127.13
2022-10-17T09:47:00.934Z,102130.66
2022-10-17T09:49:34.349Z,102133.50
2022-10-17T09:52:04.471Z,102118.94
2022-10-17T09:54:44.918Z,102143.63
2022-10-17T09:57:14.534Z,102145.50
2022-10-17T09:59:44.365Z,102156.19
2022-10-17T10:02:24.183Z,102155.66
2022-10-17T10:05:06.078Z,102147.81
2022-10-17T10:07:38.340Z,102149.50
2022-10-17T10:10:27.734Z,102149.25
2022-10-17T10:13:20.374Z,102127.41
2022-10-17T10:15:50.010Z,102147.63
2022-10-17T10:18:33.840Z,102154.31
2022-10-17T10:21:11.398Z,102159.88
2022-10-17T10:23:41.287Z,102164.41
2022-10-17T10:26:24.179Z,102162.34
2022-10-17T10:29:02.000Z,102152.31
2022-10-17T10:31:33.933Z,102155.88
2022-10-17T10:34:04.490Z,102158.59
2022-10-17T10:36:49.553Z,102156.72
2022-10-17T10:39:30.092Z,102164.53
2022-10-17T10:42:00.472Z,102157.38
2022-10-17T10:44:31.878Z,102144.88
2022-10-17T10:47:15.786Z,102150.63
2022-10-17T10:49:44.847Z,102161.69
2022-10-17T10:52:20.971Z,102158.31
2022-10-17T10:54:57.502Z,102117.00
2022-10-17T10:57:32.080Z,102152.09
2022-10-17T11:00:07.891Z,102145.63
2022-10-17T11:02:42.387Z,102141.97
2022-10-17T11:05:17.407Z,102155.66
2022-10-17T11:07:53.063Z,102149.19
2022-10-17T11:10:29.426Z,102152.50
2022-10-17T11:13:05.607Z,102148.63
2022-10-17T11:15:40.700Z,102113.28
2022-10-17T11:18:13.214Z,102146.28
2022-10-17T11:20:52.675Z,102142.53
2022-10-17T11:23:25.913Z,102145.44
2022-10-17T11:25:55.878Z,102154.34
2022-10-17T11:28:26.771Z,102151.44
2022-10-17T11:31:04.448Z,102149.09
2022-10-17T11:33:43.204Z,102146.72
2022-10-17T11:36:12.435Z,102145.38
2022-10-17T11:38:46.878Z,102124.25
2022-10-17T11:41:20.328Z,102137.47
2022-10-17T11:43:56.037Z,102123.09
2022-10-17T11:46:25.855Z,102102.28
2022-10-17T11:49:02.676Z,102124.50
2022-10-17T11:54:30.238Z,102132.19
2022-10-17T11:57:14.701Z,102114.22
2022-10-17T11:59:58.798Z,102139.44
2022-10-17T12:02:39.219Z,102142.81
2022-10-17T12:05:25.222Z,102142.81
2022-10-17T12:08:00.160Z,102144.69
2022-10-17T12:10:53.493Z,102140.19
2022-10-17T12:13:51.720Z,102140.38
2022-10-17T12:16:45.370Z,102123.19
2022-10-17T12:19:33.040Z,102122.72
2022-10-17T12:22:05.846Z,102122.91
2022-10-17T12:24:42.435Z,102070.53
2022-10-17T12:27:25.104Z,102114.00
2022-10-17T12:30:01.189Z,102123.34
2022-10-17T12:32:46.898Z,102126.75
2022-10-17T12:35:23.380Z,102123.75
2022-10-17T12:38:28.203Z,102124.22
2022-10-17T12:41:04.265Z,102121.59
2022-10-17T12:43:46.234Z,102118.97
2022-10-17T12:46:34.915Z,102119.63
2022-10-17T12:49:20.679Z,102110.41
2022-10-17T12:52:18.589Z,102109.56
2022-10-17T12:55:00.374Z,102112.00
2022-10-17T12:57:40.492Z,102104.13
2022-10-17T13:00:18.465Z,102109.09
2022-10-17T13:02:47.472Z,102090.69
2022-10-17T13:05:28.339Z,102110.31
2022-10-17T13:07:58.931Z,102101.50
2022-10-17T13:10:30.981Z,102098.59
2022-10-17T13:13:07.353Z,102090.69
2022-10-17T13:15:37.525Z,102080.66
2022-10-17T13:18:06.455Z,102090.28
2022-10-17T13:20:36.054Z,102089.16
2022-10-17T13:23:04.371Z,102088.66
2022-10-17T13:25:35.462Z,102081.03
2022-10-17T13:28:14.658Z,102088.47
2022-10-17T13:30:49.753Z,102094.75
2022-10-17T13:33:30.168Z,102087.63
2022-10-17T13:36:01.319Z,102090.91
2022-10-17T13:38:35.671Z,102091.94
2022-10-17T13:41:34.845Z,102092.97
2022-10-17T13:44:08.402Z,102087.06
2022-10-17T13:46:39.234Z,102091.28
2022-10-17T13:49:16.932Z,102088.19
2022-10-17T13:51:49.189Z,102076.72
2022-10-17T13:54:40.343Z,102071.34
2022-10-17T13:57:19.924Z,102068.63
2022-10-17T13:59:50.639Z,102075.09
2022-10-17T14:02:22.163Z,102073.59
2022-10-17T14:05:18.576Z,102076.25
2022-10-17T14:10:44.530Z,102108.56
2022-10-17T14:13:25.363Z,102101.91
2022-10-17T14:15:55.092Z,102102.75
2022-10-17T14:18:26.665Z,102104.81
2022-10-17T14:21:32.193Z,102105.09
2022-10-17T14:23:45.760Z,102120.03
2022-10-17T14:26:16.870Z,102086.69
2022-10-17T14:28:47.885Z,102120.03
2022-10-17T14:31:31.561Z,102120.03
2022-10-17T14:34:01.871Z,102117.97
2022-10-17T14:36:37.169Z,102119.66
2022-10-17T14:39:14.106Z,102132.22
2022-10-17T14:41:45.929Z,102142.50
2022-10-17T14:44:22.863Z,102133.38
2022-10-17T14:46:56.154Z,102137.91
2022-10-17T14:49:29.997Z,102135.28
2022-10-17T14:52:28.987Z,102135.94
2022-10-17T14:55:00.127Z,102141.31
2022-10-17T14:57:36.197Z,102148.16
2022-10-17T15:00:05.374Z,102145.81
2022-10-17T15:02:33.823Z,102140.72
2022-10-17T15:05:02.158Z,102139.63
2022-10-17T15:07:30.674Z,102137.47
2022-10-17T15:10:00.338Z,102129.66
2022-10-17T15:12:28.823Z,102132.78
2022-10-17T15:14:57.336Z,102108.28
2022-10-17T15:17:27.403Z,102132.84
2022-10-17T15:19:56.295Z,102127.78
2022-10-17T15:22:25.297Z,102141.59
2022-10-17T15:24:53.808Z,102144.03
2022-10-17T15:27:24.877Z,102147.97
2022-10-17T15:29:53.394Z,102140.38
2022-10-17T15:32:21.616Z,102140.25
2022-10-17T15:34:50.034Z,102132.59
2022-10-17T15:37:22.410Z,102133.81
2022-10-17T15:39:53.668Z,102102.38
2022-10-17T15:42:27.715Z,102134.84
2022-10-17T15:44:56.131Z,102133.19
2022-10-17T15:47:28.076Z,102145.56
2022-10-17T15:49:56.794Z,102151.41
2022-10-17T15:52:25.342Z,102157.03
2022-10-17T15:54:53.957Z,102150.72
2022-10-17T15:57:27.511Z,102156.91
2022-10-17T15:59:58.811Z,102128.88
2022-10-17T16:02:27.361Z,102154.44
2022-10-17T16:04:55.620Z,102148.50
2022-10-17T16:07:23.896Z,102140.25
2022-10-17T16:09:52.467Z,102105.91
2022-10-17T16:12:31.278Z,102142.00
2022-10-17T16:14:59.730Z,102119.28
2022-10-17T16:17:28.038Z,102101.97
2022-10-17T16:19:56.490Z,102095.22
2022-10-17T16:22:32.442Z,102092.88
2022-10-17T16:25:07.989Z,102100.03
2022-10-17T16:27:38.537Z,102104.97
2022-10-17T16:30:09.151Z,102088.38
2022-10-17T16:32:38.485Z,102060.47
2022-10-17T16:35:07.653Z,102110.28
2022-10-17T16:37:36.207Z,102102.47
2022-10-17T16:40:05.082Z,102107.03
2022-10-17T16:42:33.401Z,102092.13
2022-10-17T16:45:03.314Z,102083.66
2022-10-17T16:47:32.778Z,102073.81
2022-10-17T16:50:00.998Z,102082.34
2022-10-17T16:52:29.980Z,102078.78
2022-10-17T16:54:58.292Z,102072.88
2022-10-17T16:57:26.541Z,102075.09
2022-10-17T16:59:54.802Z,102097.84
2022-10-17T17:02:24.605Z,102104.13
2022-10-17T17:04:52.852Z,102100.56
2022-10-17T17:07:22.102Z,102104.31
2022-10-17T17:09:50.347Z,102110.78
2022-10-17T17:12:18.586Z,102111.50
2022-10-17T17:14:46.893Z,102124.41
2022-10-17T17:17:24.491Z,102126.63
2022-10-17T17:20:05.558Z,102135.34
2022-10-17T17:22:34.513Z,102135.53
2022-10-17T17:25:02.774Z,102140.78
2022-10-17T17:27:31.300Z,102140.28
2022-10-17T17:29:59.750Z,102149.94
2022-10-17T17:32:27.970Z,102160.16
2022-10-17T17:34:56.314Z,102151.22
2022-10-17T17:37:26.365Z,102180.00
2022-10-17T17:39:54.628Z,102176.41
2022-10-17T17:42:22.878Z,102187.13
2022-10-17T17:44:52.231Z,102186.22
2022-10-17T17:47:20.563Z,102189.81
2022-10-17T17:49:48.834Z,102180.47
2022-10-17T17:52:17.048Z,102182.91
2022-10-17T17:54:47.205Z,102184.09
2022-10-17T17:57:15.401Z,102185.31
2022-10-17T17:59:44.075Z,102182.44
2022-10-17T18:02:12.716Z,102194.66
2022-10-17T18:04:40.958Z,102199.41
2022-10-17T18:07:09.270Z,102194.81
2022-10-17T18:09:37.491Z,102204.66
2022-10-17T18:12:07.247Z,102211.13
2022-10-17T18:14:35.503Z,102202.47
2022-10-17T18:17:03.839Z,102214.00
2022-10-17T18:19:32.180Z,102203.31
2022-10-17T18:22:00.441Z,102210.63
2022-10-17T18:24:28.693Z,102220.28
2022-10-17T18:26:59.940Z,102220.47
2022-10-17T18:29:31.244Z,102227.75
2022-10-17T18:32:00.267Z,102230.31
2022-10-17T18:34:28.900Z,102193.03
2022-10-17T18:36:58.936Z,102210.97
2022-10-17T18:39:27.312Z,102233.53
2022-10-17T18:41:55.681Z,102237.78
2022-10-17T18:44:24.215Z,102232.50
2022-10-17T18:46:53.943Z,102237.59
2022-10-17T18:49:23.273Z,102224.84
2022-10-17T18:51:51.819Z,102232.16
2022-10-17T18:54:22.144Z,102224.00
2022-10-17T18:56:51.452Z,102225.88
2022-10-17T18:59:20.276Z,102234.19
2022-10-17T19:01:49.010Z,102223.69
2022-10-17T19:04:18.816Z,102236.25
2022-10-17T19:06:47.129Z,102214.88
2022-10-17T19:09:16.635Z,102232.00
2022-10-17T19:11:45.080Z,102232.19
2022-10-17T19:14:14.572Z,102232.00
2022-10-17T19:16:44.733Z,102167.41
2022-10-17T19:19:14.997Z,102226.75
2022-10-17T19:21:45.199Z,102226.41
2022-10-17T19:24:15.524Z,102229.97
2022-10-17T19:26:45.061Z,102226.56
2022-10-17T19:29:15.502Z,102189.81
2022-10-17T19:31:44.385Z,102215.88
2022-10-17T19:34:13.769Z,102225.72
2022-10-17T19:36:43.011Z,102227.41
2022-10-17T19:39:14.791Z,102224.03
2022-10-17T19:41:43.853Z,102224.03
2022-10-17T19:44:12.618Z,102226.06
2022-10-17T19:46:41.626Z,102223.34
2022-10-17T19:49:09.838Z,102218.94
2022-10-17T19:51:38.103Z,102217.41
2022-10-17T19:54:06.362Z,102210.16
2022-10-17T19:56:38.180Z,102214.25
2022-10-17T19:59:07.522Z,102220.38
2022-10-17T20:01:39.081Z,102222.88
2022-10-17T20:04:07.778Z,102222.38
2022-10-17T20:06:36.666Z,102219.31
2022-10-17T20:09:05.661Z,102212.75
2022-10-17T20:11:35.426Z,102215.13
2022-10-17T20:14:03.798Z,102224.28
2022-10-17T20:16:34.344Z,102183.41
2022-10-17T20:19:05.725Z,102227.00
2022-10-17T20:21:36.730Z,102232.25
2022-10-17T20:24:06.674Z,102202.41
2022-10-17T20:26:38.522Z,102237.84
2022-10-17T20:29:11.191Z,102228.50
2022-10-17T20:31:41.128Z,102238.53
2022-10-17T20:34:12.689Z,102234.78
2022-10-17T20:36:41.287Z,102239.53
2022-10-17T20:39:11.845Z,102250.31
2022-10-17T20:41:41.643Z,102252.66
2022-10-17T20:44:10.274Z,102248.63
2022-10-17T20:46:45.258Z,102247.78
2022-10-17T20:49:18.482Z,102254.22
2022-10-17T20:51:47.020Z,102257.09
2022-10-17T20:54:15.464Z,102247.94
2022-10-17T20:56:46.275Z,102253.03
2022-10-17T20:59:16.288Z,102243.16
2022-10-17T21:01:45.874Z,102259.63
2022-10-17T21:04:44.804Z,102269.09
2022-10-17T21:07:03.395Z,102265.03
2022-10-17T21:09:31.601Z,102265.69
2022-10-17T21:14:36.483Z,102263.31
2022-10-17T21:17:05.626Z,102221.22
2022-10-17T21:19:34.051Z,102274.31
2022-10-17T21:22:02.441Z,102271.78
2022-10-17T21:24:31.764Z,102278.38
2022-10-17T21:27:01.540Z,102275.47
2022-10-17T21:29:29.864Z,102288.16
2022-10-17T21:31:58.523Z,102293.94
2022-10-17T21:34:27.874Z,102304.94
2022-10-17T21:36:56.390Z,102282.53
2022-10-17T21:39:25.262Z,102301.69
2022-10-17T21:41:54.347Z,102296.75
2022-10-17T21:44:26.422Z,102296.44
2022-10-17T21:46:56.127Z,102294.22
2022-10-17T21:49:26.161Z,102294.91
2022-10-17T21:51:54.963Z,102295.38
2022-10-17T21:54:24.249Z,102289.59
2022-10-17T21:56:52.975Z,102286.69
2022-10-17T21:59:21.329Z,102287.03
2022-10-17T22:01:51.043Z,102292.59
2022-10-17T22:04:20.753Z,102245.66
2022-10-17T22:06:52.446Z,102286.13
2022-10-17T22:09:23.447Z,102282.03
2022-10-17T22:11:54.523Z,102284.75
2022-10-17T22:14:24.610Z,102272.50
2022-10-17T22:16:54.719Z,102276.84
2022-10-17T22:19:25.157Z,102285.47
2022-10-17T22:21:53.960Z,102285.94
2022-10-17T22:24:23.629Z,102291.69
2022-10-17T22:26:52.555Z,102293.69
2022-10-17T22:29:21.058Z,102263.81
2022-10-17T22:31:49.323Z,102290.13
2022-10-17T22:34:19.718Z,102287.09
2022-10-17T22:36:49.140Z,102286.94
2022-10-17T22:39:17.602Z,102270.97
2022-10-17T22:41:45.977Z,102290.66
2022-10-17T22:44:14.266Z,102280.16
2022-10-17T22:46:42.590Z,102277.59
2022-10-17T22:49:10.983Z,102261.28
2022-10-17T22:51:40.665Z,102273.34
2022-10-17T22:54:08.899Z,102266.56
2022-10-17T22:56:37.146Z,102268.22
2022-10-17T22:59:05.464Z,102274.25
2022-10-17T23:01:33.877Z,102276.88
2022-10-17T23:04:02.251Z,102277.34
2022-10-17T23:06:30.561Z,102280.53
2022-10-17T23:09:00.169Z,102265.78
2022-10-17T23:11:28.466Z,102266.56
2022-10-17T23:13:56.762Z,102271.97
2022-10-17T23:16:25.039Z,102260.75
2022-10-17T23:18:53.366Z,102264.06
2022-10-17T23:21:21.537Z,102267.09
2022-10-17T23:23:49.784Z,102267.09
2022-10-17T23:26:19.428Z,102265.69
2022-10-17T23:28:47.818Z,102211.50
2022-10-17T23:31:18.870Z,102258.66
2022-10-17T23:33:48.743Z,102254.16
2022-10-17T23:36:19.955Z,102261.19
2022-10-17T23:38:50.187Z,102254.84
2022-10-17T23:41:20.652Z,102254.16
2022-10-17T23:43:48.957Z,102263.94
2022-10-17T23:46:17.189Z,102259.94
2022-10-17T23:48:45.472Z,102258.94
2022-10-17T23:51:14.019Z,102252.25
2022-10-17T23:53:42.479Z,102248.19
2022-10-17T23:56:11.671Z,102258.84
2022-10-17T23:58:41.622Z,102259.00
